Baltimore, Maryland
Traffic Map
Current Weather Conditions
Baltimore, Maryland
Overcast
Overcast
-2°
Feels Like: -2°
Wind Chill: -2° Ceiling: 5000
Heat Index: -2° Visibility: 9mi
Dew Point: -6° Wind: 0mph
Humidity: 78% Direction: ° ()
Pressure: 30.13in Gusts: 0mph
Raw Report DataKBWI 270354Z 00000KT 9SM OVC050 M02/M06 A3013 RMK AO2 SLP205 T10221056
Traffic Incident Summary
Active as of:
Severity:
Category:
InformationThere was an issue retrieving the traffic information for this location. Please try a different location or try again shortly.
Advertisements
Track Severe Weather on mobile